Time;durP1;ratioP1;P1;durP2;ratioP2;P2;SDS_P1;SDS_P2;PMS_P1;PMS_P2;Temp;Humidity;BMP_temperature;BMP_pressure;BME280_temperature;BME280_humidity;BME280_pressure;Samples;Min_cycle;Max_cycle;Signal;HPM_P1;HPM_P2
2023/03/23 00:00:45;;;;;;;2.97;2.37;;;;;;;;;;5005697;28;20171;-54
2023/03/23 00:03:12;;;;;;;4.40;2.33;;;;;;;;;;5012015;28;20201;-54
2023/03/23 00:05:40;;;;;;;3.20;2.17;;;;;;;;;;5013577;28;20309;-54
2023/03/23 00:08:08;;;;;;;3.40;2.27;;;;;;;;;;5012591;28;20575;-54
2023/03/23 00:10:35;;;;;;;3.40;2.47;;;;;;;;;;5002210;28;20186;-54
2023/03/23 00:13:02;;;;;;;2.50;2.30;;;;;;;;;;5019506;28;20720;-54
2023/03/23 00:15:32;;;;;;;4.40;2.57;;;;;;;;;;5014308;28;20194;-54
2023/03/23 00:18:02;;;;;;;4.63;2.53;;;;;;;;;;5013688;28;20258;-54
2023/03/23 00:20:40;;;;;;;2.83;2.57;;;;;;;;;;5020520;28;20724;-54
2023/03/23 00:23:06;;;;;;;2.67;2.10;;;;;;;;;;5008529;28;20205;-54
2023/03/23 00:25:32;;;;;;;2.60;2.40;;;;;;;;;;5012947;28;20186;-54
2023/03/23 00:27:58;;;;;;;2.50;2.13;;;;;;;;;;5009528;28;20214;-54
2023/03/23 00:30:24;;;;;;;2.60;2.40;;;;;;;;;;5012615;28;20183;-54
2023/03/23 00:32:50;;;;;;;2.57;2.37;;;;;;;;;;5018481;28;20748;-54
2023/03/23 00:35:17;;;;;;;2.63;2.33;;;;;;;;;;5012993;28;20284;-54
2023/03/23 00:37:43;;;;;;;2.60;2.40;;;;;;;;;;5013414;28;20686;-54
2023/03/23 00:40:10;;;;;;;3.80;2.90;;;;;;;;;;5012185;28;20190;-54
2023/03/23 00:42:37;;;;;;;4.13;2.80;;;;;;;;;;5018811;28;20542;-54
2023/03/23 00:45:10;;;;;;;3.33;2.67;;;;;;;;;;5022085;28;20190;-55
2023/03/23 00:47:36;;;;;;;5.30;2.97;;;;;;;;;;5010848;28;20654;-54
2023/03/23 00:50:03;;;;;;;3.13;2.63;;;;;;;;;;5009827;28;20308;-54
2023/03/23 00:52:29;;;;;;;3.73;2.40;;;;;;;;;;5010375;28;20198;-54
2023/03/23 00:54:55;;;;;;;3.60;2.43;;;;;;;;;;5008903;28;20636;-54
2023/03/23 00:57:23;;;;;;;3.43;2.40;;;;;;;;;;5005143;28;20206;-54
2023/03/23 00:59:50;;;;;;;2.70;2.37;;;;;;;;;;5009586;28;20721;-54
2023/03/23 01:02:16;;;;;;;2.73;2.50;;;;;;;;;;5011186;28;20245;-54
2023/03/23 01:04:45;;;;;;;3.60;2.60;;;;;;;;;;5010988;28;20532;-54
2023/03/23 01:07:17;;;;;;;2.00;1.90;;;;;;;;;;5008274;28;20269;-54
2023/03/23 01:09:44;;;;;;;3.20;2.07;;;;;;;;;;5013746;28;20198;-54
2023/03/23 01:12:11;;;;;;;2.77;2.40;;;;;;;;;;5012278;28;20193;-54
2023/03/23 01:14:37;;;;;;;3.80;2.20;;;;;;;;;;5009467;28;20666;-54
2023/03/23 01:17:03;;;;;;;8.43;2.80;;;;;;;;;;5011207;28;20187;-54
2023/03/23 01:19:29;;;;;;;2.77;2.37;;;;;;;;;;5013667;28;20227;-54
2023/03/23 01:21:55;;;;;;;2.30;2.10;;;;;;;;;;5009932;28;20184;-54
2023/03/23 01:24:21;;;;;;;2.97;2.47;;;;;;;;;;5025103;28;20181;-54
2023/03/23 01:26:48;;;;;;;2.67;2.47;;;;;;;;;;5012011;28;20343;-54
2023/03/23 01:29:14;;;;;;;2.57;2.20;;;;;;;;;;5010562;28;20211;-54
2023/03/23 01:31:42;;;;;;;4.07;2.40;;;;;;;;;;5020004;28;20260;-54
2023/03/23 01:34:09;;;;;;;3.07;2.53;;;;;;;;;;5019360;28;20190;-54
2023/03/23 01:36:35;;;;;;;2.70;2.30;;;;;;;;;;5011257;28;20194;-54
2023/03/23 01:39:03;;;;;;;5.37;2.43;;;;;;;;;;5012184;28;20190;-54
2023/03/23 01:41:29;;;;;;;2.60;2.40;;;;;;;;;;5005586;28;20198;-54
2023/03/23 01:43:59;;;;;;;2.67;2.47;;;;;;;;;;5009385;28;20289;-54
2023/03/23 01:46:30;;;;;;;2.83;2.60;;;;;;;;;;5010393;28;20618;-54
2023/03/23 01:48:57;;;;;;;2.83;2.60;;;;;;;;;;5005743;28;20212;-54
2023/03/23 01:51:23;;;;;;;2.73;2.53;;;;;;;;;;5010070;28;20206;-54
2023/03/23 01:53:57;;;;;;;2.87;2.67;;;;;;;;;;5013399;28;20634;-54
2023/03/23 01:56:25;;;;;;;2.60;2.30;;;;;;;;;;5005785;28;20213;-55
2023/03/23 01:58:52;;;;;;;2.87;2.30;;;;;;;;;;5010106;28;20707;-54
2023/03/23 02:01:18;;;;;;;2.70;2.50;;;;;;;;;;5000863;28;20179;-54
2023/03/23 02:03:47;;;;;;;5.07;2.70;;;;;;;;;;5017852;28;20524;-54
2023/03/23 02:06:14;;;;;;;2.60;2.40;;;;;;;;;;5006751;28;20187;-54
2023/03/23 02:08:42;;;;;;;3.03;2.83;;;;;;;;;;5023662;28;20247;-54
2023/03/23 02:11:15;;;;;;;2.70;2.50;;;;;;;;;;5006421;28;20198;-54
2023/03/23 02:13:42;;;;;;;3.10;2.80;;;;;;;;;;5009093;28;20608;-54
2023/03/23 02:16:13;;;;;;;3.40;2.57;;;;;;;;;;5009897;28;20209;-54
2023/03/23 02:18:42;;;;;;;2.47;2.27;;;;;;;;;;5007081;28;20186;-54
2023/03/23 02:21:20;;;;;;;2.37;2.17;;;;;;;;;;5009025;28;20540;-54
2023/03/23 02:24:12;;;;;;;2.27;2.07;;;;;;;;;;5010892;28;20191;-54
2023/03/23 02:26:57;;;;;;;4.17;2.43;;;;;;;;;;5001924;28;20206;-54
2023/03/23 02:29:37;;;;;;;2.47;2.27;;;;;;;;;;5008154;28;20202;-54
2023/03/23 02:32:12;;;;;;;3.20;2.10;;;;;;;;;;4999678;28;20185;-54
2023/03/23 02:34:53;;;;;;;2.30;2.10;;;;;;;;;;5006601;28;20182;-54
2023/03/23 02:37:25;;;;;;;2.60;2.40;;;;;;;;;;5015030;28;20597;-54
2023/03/23 02:39:53;;;;;;;2.43;2.23;;;;;;;;;;5015073;28;20193;-54
2023/03/23 02:42:23;;;;;;;2.97;2.73;;;;;;;;;;5015091;28;20236;-54
2023/03/23 02:44:50;;;;;;;3.03;2.73;;;;;;;;;;5018062;28;22069;-54
2023/03/23 02:47:19;;;;;;;2.93;2.50;;;;;;;;;;5006103;28;20668;-54
2023/03/23 02:49:47;;;;;;;2.70;2.50;;;;;;;;;;5010309;28;20198;-54
2023/03/23 02:52:16;;;;;;;2.90;2.70;;;;;;;;;;5011340;28;20564;-54
2023/03/23 02:54:44;;;;;;;2.70;2.30;;;;;;;;;;5012056;28;20213;-54
2023/03/23 02:57:10;;;;;;;2.73;2.40;;;;;;;;;;5008695;28;20219;-54
2023/03/23 02:59:36;;;;;;;2.90;2.60;;;;;;;;;;5015969;28;20229;-54
2023/03/23 03:02:06;;;;;;;2.53;2.33;;;;;;;;;;5005836;28;21504;-54
2023/03/23 03:04:33;;;;;;;3.63;2.37;;;;;;;;;;5007669;28;20182;-54
2023/03/23 03:07:05;;;;;;;2.70;2.50;;;;;;;;;;5005529;28;20216;-54
2023/03/23 03:09:43;;;;;;;3.30;2.53;;;;;;;;;;5008958;28;20670;-54
2023/03/23 03:12:21;;;;;;;4.10;2.80;;;;;;;;;;5007643;28;20214;-54
2023/03/23 03:15:11;;;;;;;2.70;2.23;;;;;;;;;;5001450;28;20189;-55
2023/03/23 03:17:39;;;;;;;6.30;2.50;;;;;;;;;;5013021;28;20202;-54
2023/03/23 03:20:09;;;;;;;2.57;2.37;;;;;;;;;;5022949;28;20712;-54
2023/03/23 03:22:37;;;;;;;4.37;2.40;;;;;;;;;;5011056;28;20960;-54
2023/03/23 03:25:04;;;;;;;2.93;2.30;;;;;;;;;;5013977;28;20269;-55
2023/03/23 03:27:31;;;;;;;3.90;2.77;;;;;;;;;;5005427;28;20194;-54
2023/03/23 03:29:59;;;;;;;2.90;2.53;;;;;;;;;;5005574;28;20210;-54
2023/03/23 03:32:30;;;;;;;4.03;3.50;;;;;;;;;;5007360;28;20635;-54
2023/03/23 03:34:57;;;;;;;2.77;2.03;;;;;;;;;;5006912;28;20192;-54
2023/03/23 03:37:23;;;;;;;2.83;2.63;;;;;;;;;;5011396;28;20208;-55
2023/03/23 03:39:50;;;;;;;2.30;2.10;;;;;;;;;;5011723;28;20193;-55
2023/03/23 03:42:16;;;;;;;2.43;2.30;;;;;;;;;;5000506;28;20195;-55
2023/03/23 03:44:42;;;;;;;2.70;2.50;;;;;;;;;;5015964;28;20186;-55
2023/03/23 03:47:08;;;;;;;2.50;2.30;;;;;;;;;;5014519;28;20205;-55
2023/03/23 03:49:35;;;;;;;2.00;1.90;;;;;;;;;;5021056;28;20209;-55
2023/03/23 03:52:01;;;;;;;4.00;2.37;;;;;;;;;;5007365;28;20265;-55
2023/03/23 03:54:27;;;;;;;2.20;2.00;;;;;;;;;;5011307;28;20236;-55
2023/03/23 03:56:57;;;;;;;3.03;2.20;;;;;;;;;;5006101;28;20182;-55
2023/03/23 03:59:25;;;;;;;2.50;2.30;;;;;;;;;;4999432;28;20184;-55
2023/03/23 04:01:53;;;;;;;6.10;2.10;;;;;;;;;;5003985;28;20217;-55
2023/03/23 04:04:20;;;;;;;2.43;2.13;;;;;;;;;;5015511;28;20193;-55
2023/03/23 04:06:48;;;;;;;2.37;2.17;;;;;;;;;;5007427;28;20194;-55
2023/03/23 04:09:14;;;;;;;2.17;1.97;;;;;;;;;;5007526;28;20570;-55
2023/03/23 04:11:40;;;;;;;1.80;1.70;;;;;;;;;;5008062;28;20202;-55
2023/03/23 04:14:06;;;;;;;2.80;2.17;;;;;;;;;;5007229;28;20174;-55
2023/03/23 04:16:34;;;;;;;4.43;4.13;;;;;;;;;;5007749;28;20198;-55
2023/03/23 04:19:00;;;;;;;2.23;2.00;;;;;;;;;;5006962;28;20198;-54
2023/03/23 04:21:28;;;;;;;2.37;2.17;;;;;;;;;;4997081;28;20235;-55
2023/03/23 04:23:55;;;;;;;2.10;1.90;;;;;;;;;;5000537;28;20186;-55
2023/03/23 04:26:22;;;;;;;2.23;2.13;;;;;;;;;;5006664;28;20178;-55
2023/03/23 04:28:50;;;;;;;2.70;1.90;;;;;;;;;;5010591;28;20224;-55
2023/03/23 04:31:16;;;;;;;4.37;2.40;;;;;;;;;;5013800;28;20554;-55
2023/03/23 04:33:42;;;;;;;1.77;1.67;;;;;;;;;;5009033;28;20189;-55
2023/03/23 04:36:08;;;;;;;2.10;1.90;;;;;;;;;;5008263;28;20190;-55
2023/03/23 04:38:34;;;;;;;2.73;2.10;;;;;;;;;;5013523;28;20243;-54
2023/03/23 04:41:01;;;;;;;2.00;1.90;;;;;;;;;;5013258;28;20622;-55
2023/03/23 04:43:28;;;;;;;2.70;2.20;;;;;;;;;;5017183;28;20248;-55
2023/03/23 04:45:58;;;;;;;2.23;2.03;;;;;;;;;;5011527;28;20192;-55
2023/03/23 04:48:25;;;;;;;2.17;1.97;;;;;;;;;;5000570;28;20211;-55
2023/03/23 04:50:51;;;;;;;3.47;1.80;;;;;;;;;;5011130;28;20178;-55
2023/03/23 04:53:18;;;;;;;3.40;2.03;;;;;;;;;;5011129;28;20191;-55
2023/03/23 04:55:44;;;;;;;2.13;2.00;;;;;;;;;;5014195;28;20178;-55
2023/03/23 04:58:14;;;;;;;2.07;1.90;;;;;;;;;;5008834;28;20252;-54
2023/03/23 05:00:43;;;;;;;1.90;1.80;;;;;;;;;;5007733;28;20206;-55
2023/03/23 05:03:09;;;;;;;3.33;3.03;;;;;;;;;;5009073;28;20269;-55
2023/03/23 05:05:36;;;;;;;1.83;1.73;;;;;;;;;;5016922;28;20187;-55
2023/03/23 05:08:02;;;;;;;2.63;1.83;;;;;;;;;;5018100;28;20200;-55
2023/03/23 05:10:28;;;;;;;1.90;1.80;;;;;;;;;;5025698;28;20186;-55
2023/03/23 05:12:54;;;;;;;1.90;1.80;;;;;;;;;;5022471;28;20186;-55
2023/03/23 05:15:20;;;;;;;2.30;2.10;;;;;;;;;;5009746;28;20701;-55
2023/03/23 05:17:48;;;;;;;2.77;2.10;;;;;;;;;;5008717;28;20550;-55
2023/03/23 05:20:18;;;;;;;3.13;2.93;;;;;;;;;;5012964;28;20230;-55
2023/03/23 05:22:47;;;;;;;2.40;2.20;;;;;;;;;;5017585;28;20558;-55
2023/03/23 05:25:13;;;;;;;3.63;3.33;;;;;;;;;;5012361;28;20741;-55
2023/03/23 05:27:43;;;;;;;2.50;1.87;;;;;;;;;;5010742;28;20186;-55
2023/03/23 05:30:10;;;;;;;3.13;2.93;;;;;;;;;;5012638;28;20244;-55
2023/03/23 05:32:37;;;;;;;2.97;2.67;;;;;;;;;;5017763;28;20688;-55
2023/03/23 05:35:03;;;;;;;2.60;2.40;;;;;;;;;;5023249;28;20186;-55
2023/03/23 05:37:32;;;;;;;3.00;2.47;;;;;;;;;;5015043;28;20232;-55
2023/03/23 05:40:01;;;;;;;2.77;2.07;;;;;;;;;;5015509;28;20654;-55
2023/03/23 05:42:27;;;;;;;2.40;2.20;;;;;;;;;;5010160;28;20265;-55
2023/03/23 05:44:53;;;;;;;2.07;1.97;;;;;;;;;;5008754;28;20186;-55
2023/03/23 05:47:19;;;;;;;2.87;2.43;;;;;;;;;;5008065;28;20190;-55
2023/03/23 05:49:45;;;;;;;2.50;2.30;;;;;;;;;;5007232;28;20209;-55
2023/03/23 05:52:12;;;;;;;3.27;3.07;;;;;;;;;;5010826;28;20646;-55
2023/03/23 05:54:38;;;;;;;2.03;1.83;;;;;;;;;;5022814;28;20780;-55
2023/03/23 05:57:05;;;;;;;2.40;2.10;;;;;;;;;;5010649;28;20186;-55
2023/03/23 05:59:31;;;;;;;2.13;1.93;;;;;;;;;;5007424;28;20199;-55
2023/03/23 06:01:58;;;;;;;2.20;2.00;;;;;;;;;;5006511;28;20195;-55
2023/03/23 06:04:24;;;;;;;2.73;2.20;;;;;;;;;;5007656;28;20635;-55
2023/03/23 06:06:54;;;;;;;2.30;2.10;;;;;;;;;;5012851;28;20208;-55
2023/03/23 06:09:20;;;;;;;2.20;2.00;;;;;;;;;;5020384;28;20301;-55
2023/03/23 06:11:50;;;;;;;2.67;2.03;;;;;;;;;;5009244;28;20499;-55
2023/03/23 06:14:17;;;;;;;2.53;2.33;;;;;;;;;;5025306;28;20182;-55
2023/03/23 06:16:43;;;;;;;2.50;2.30;;;;;;;;;;5008739;28;20178;-55
2023/03/23 06:19:10;;;;;;;1.90;1.80;;;;;;;;;;5012905;28;20221;-55
2023/03/23 06:21:37;;;;;;;2.90;2.37;;;;;;;;;;5025620;28;20240;-55
2023/03/23 06:24:03;;;;;;;2.30;2.10;;;;;;;;;;5006112;28;20489;-55
2023/03/23 06:26:33;;;;;;;2.33;2.13;;;;;;;;;;5008366;28;20196;-56
2023/03/23 06:29:00;;;;;;;3.77;2.40;;;;;;;;;;5006518;28;20206;-56
2023/03/23 06:31:27;;;;;;;3.50;2.60;;;;;;;;;;5009346;28;20638;-55
2023/03/23 06:33:53;;;;;;;5.23;2.40;;;;;;;;;;5015506;28;20763;-55
2023/03/23 06:36:19;;;;;;;2.33;2.13;;;;;;;;;;5025523;28;20189;-55
2023/03/23 06:38:46;;;;;;;3.30;2.40;;;;;;;;;;5017325;28;20621;-55
2023/03/23 06:41:12;;;;;;;3.33;2.40;;;;;;;;;;5021574;28;20247;-55
2023/03/23 06:43:39;;;;;;;3.47;2.20;;;;;;;;;;5012304;28;20570;-55
2023/03/23 06:46:06;;;;;;;2.60;2.40;;;;;;;;;;5020414;28;20232;-54
2023/03/23 06:48:32;;;;;;;3.27;2.77;;;;;;;;;;5007637;28;20247;-54
2023/03/23 06:50:58;;;;;;;2.50;2.30;;;;;;;;;;5029081;28;20232;-55
2023/03/23 06:53:24;;;;;;;4.50;2.47;;;;;;;;;;5023242;28;20190;-55
2023/03/23 06:55:51;;;;;;;3.93;2.60;;;;;;;;;;5010416;28;20194;-54
2023/03/23 06:58:17;;;;;;;2.67;2.40;;;;;;;;;;5009300;28;20590;-55
2023/03/23 07:00:44;;;;;;;4.83;2.60;;;;;;;;;;5008477;28;20548;-55
2023/03/23 07:03:10;;;;;;;4.93;2.20;;;;;;;;;;5010176;28;20193;-56
2023/03/23 07:05:36;;;;;;;2.90;2.60;;;;;;;;;;5023142;28;20649;-57
2023/03/23 07:08:06;;;;;;;4.77;2.63;;;;;;;;;;5021031;28;20724;-55
2023/03/23 07:10:33;;;;;;;2.60;2.23;;;;;;;;;;5008897;28;20182;-55
2023/03/23 07:13:00;;;;;;;4.60;2.43;;;;;;;;;;5009149;28;20207;-55
2023/03/23 07:15:26;;;;;;;4.20;2.60;;;;;;;;;;5013310;28;20211;-56
2023/03/23 07:17:54;;;;;;;3.33;2.10;;;;;;;;;;5012081;28;20178;-55
2023/03/23 07:20:20;;;;;;;3.90;2.43;;;;;;;;;;5018053;28;20673;-55
2023/03/23 07:22:46;;;;;;;3.20;2.00;;;;;;;;;;5015942;28;20826;-55
2023/03/23 07:25:12;;;;;;;3.40;2.23;;;;;;;;;;5010011;28;20191;-55
2023/03/23 07:27:38;;;;;;;4.47;2.23;;;;;;;;;;5007043;28;20223;-55
2023/03/23 07:30:05;;;;;;;3.03;2.10;;;;;;;;;;5006146;28;20587;-55
2023/03/23 07:32:31;;;;;;;4.03;2.10;;;;;;;;;;5010190;28;20198;-55
2023/03/23 07:34:57;;;;;;;5.30;2.87;;;;;;;;;;5011774;28;20261;-55
2023/03/23 07:37:23;;;;;;;3.87;1.97;;;;;;;;;;5014342;28;20182;-55
2023/03/23 07:39:49;;;;;;;3.83;2.30;;;;;;;;;;4997690;28;20249;-55
2023/03/23 07:42:15;;;;;;;2.37;2.00;;;;;;;;;;5010753;28;20547;-55
2023/03/23 07:44:41;;;;;;;3.93;2.07;;;;;;;;;;5007131;28;20178;-55
2023/03/23 07:47:07;;;;;;;2.60;1.90;;;;;;;;;;5004599;28;21503;-55
2023/03/23 07:49:33;;;;;;;5.60;2.20;;;;;;;;;;5007877;28;20297;-55
2023/03/23 07:52:01;;;;;;;2.33;1.90;;;;;;;;;;5009804;28;20163;-55
2023/03/23 07:54:27;;;;;;;4.37;2.30;;;;;;;;;;5008590;28;20706;-55
2023/03/23 07:56:53;;;;;;;4.23;2.77;;;;;;;;;;5009091;28;20178;-56
2023/03/23 07:59:20;;;;;;;4.97;1.97;;;;;;;;;;5019045;28;20223;-56
2023/03/23 08:01:46;;;;;;;2.63;2.20;;;;;;;;;;5009516;28;20186;-56
2023/03/23 08:04:13;;;;;;;2.40;2.20;;;;;;;;;;5017432;28;20262;-56
2023/03/23 08:06:39;;;;;;;2.87;2.23;;;;;;;;;;5009104;28;20609;-55
2023/03/23 08:09:08;;;;;;;4.00;2.20;;;;;;;;;;5013578;28;20210;-56
2023/03/23 08:11:35;;;;;;;3.80;2.23;;;;;;;;;;5012862;28;20202;-56
2023/03/23 08:14:02;;;;;;;4.43;2.53;;;;;;;;;;5006839;28;20190;-55
2023/03/23 08:16:28;;;;;;;5.00;1.97;;;;;;;;;;5007297;28;20236;-56
2023/03/23 08:18:55;;;;;;;2.40;2.20;;;;;;;;;;5024565;28;20189;-56
2023/03/23 08:21:22;;;;;;;2.60;2.03;;;;;;;;;;5020292;28;20193;-57
2023/03/23 08:23:48;;;;;;;2.97;2.17;;;;;;;;;;5032565;28;20190;-56
2023/03/23 08:26:15;;;;;;;4.20;2.20;;;;;;;;;;5019811;28;20662;-56
2023/03/23 08:28:43;;;;;;;3.70;2.10;;;;;;;;;;5016591;28;20213;-56
2023/03/23 08:31:10;;;;;;;2.17;1.80;;;;;;;;;;5014016;28;20305;-56
2023/03/23 08:33:36;;;;;;;3.63;1.93;;;;;;;;;;5023716;28;20185;-56
2023/03/23 08:36:03;;;;;;;3.03;1.80;;;;;;;;;;5015581;28;20182;-56
2023/03/23 08:38:30;;;;;;;1.97;1.73;;;;;;;;;;5024654;28;20170;-55
2023/03/23 08:41:00;;;;;;;4.83;1.97;;;;;;;;;;5014643;28;20221;-56
2023/03/23 08:43:27;;;;;;;3.60;2.00;;;;;;;;;;5031611;28;20216;-56
2023/03/23 08:45:53;;;;;;;2.10;1.67;;;;;;;;;;5021787;28;20198;-56
2023/03/23 08:48:19;;;;;;;2.60;1.97;;;;;;;;;;5021807;28;20194;-56
2023/03/23 08:50:45;;;;;;;2.00;1.87;;;;;;;;;;5013525;28;20186;-56
2023/03/23 08:53:12;;;;;;;2.00;1.80;;;;;;;;;;5023959;28;20641;-53
2023/03/23 08:55:39;;;;;;;2.73;2.43;;;;;;;;;;5016841;28;20186;-53
2023/03/23 08:58:05;;;;;;;3.07;1.93;;;;;;;;;;5018103;28;20211;-53
2023/03/23 09:00:32;;;;;;;5.53;2.20;;;;;;;;;;5029278;28;20195;-53
2023/03/23 09:02:59;;;;;;;2.07;1.70;;;;;;;;;;5018997;28;20569;-53
2023/03/23 09:05:26;;;;;;;1.83;1.70;;;;;;;;;;5032475;28;20167;-53
2023/03/23 09:07:54;;;;;;;3.47;2.10;;;;;;;;;;5021036;28;20649;-53
2023/03/23 09:10:20;;;;;;;2.77;2.00;;;;;;;;;;5014366;28;20208;-53
2023/03/23 09:12:47;;;;;;;2.60;2.10;;;;;;;;;;5010783;28;20209;-53
2023/03/23 09:15:14;;;;;;;3.43;2.00;;;;;;;;;;5027735;28;20186;-53
2023/03/23 09:17:44;;;;;;;2.03;1.93;;;;;;;;;;5021606;28;20277;-53
2023/03/23 09:20:11;;;;;;;3.87;2.10;;;;;;;;;;5011028;28;20216;-53
2023/03/23 09:22:41;;;;;;;2.50;2.20;;;;;;;;;;5017647;28;20188;-53
2023/03/23 09:25:08;;;;;;;2.20;2.03;;;;;;;;;;5018549;28;20303;-53
2023/03/23 09:27:36;;;;;;;3.70;2.33;;;;;;;;;;5010328;28;20200;-52
2023/03/23 09:30:04;;;;;;;3.43;2.00;;;;;;;;;;5017165;28;20208;-53
2023/03/23 09:32:30;;;;;;;3.27;2.37;;;;;;;;;;5010889;28;20189;-53
2023/03/23 09:34:56;;;;;;;3.03;2.20;;;;;;;;;;5021122;28;20186;-53
2023/03/23 09:37:22;;;;;;;3.07;2.10;;;;;;;;;;5019778;28;20191;-53
2023/03/23 09:39:50;;;;;;;2.53;1.83;;;;;;;;;;5018227;28;20634;-52
2023/03/23 09:42:42;;;;;;;2.03;1.40;;;;;;;;;;5018605;28;20210;-55
2023/03/23 09:45:09;;;;;;;2.97;2.20;;;;;;;;;;5017976;28;20238;-55
2023/03/23 09:47:38;;;;;;;4.23;2.07;;;;;;;;;;5008206;28;20174;-55
2023/03/23 09:50:09;;;;;;;4.43;2.07;;;;;;;;;;5010143;28;20203;-55
2023/03/23 09:52:39;;;;;;;4.43;1.90;;;;;;;;;;5011949;28;20261;-55
2023/03/23 09:55:05;;;;;;;3.53;1.90;;;;;;;;;;5010435;28;20178;-55
2023/03/23 09:57:37;;;;;;;2.27;2.00;;;;;;;;;;5014513;28;20178;-55
2023/03/23 10:00:10;;;;;;;3.20;1.73;;;;;;;;;;5024246;28;20544;-55
2023/03/23 10:02:39;;;;;;;3.97;1.80;;;;;;;;;;5015614;28;20182;-56
2023/03/23 10:05:21;;;;;;;3.33;1.90;;;;;;;;;;5006262;28;20220;-56
2023/03/23 10:07:47;;;;;;;2.63;1.83;;;;;;;;;;5019289;28;20197;-55
2023/03/23 10:10:14;;;;;;;5.43;2.53;;;;;;;;;;5009305;28;20233;-55
2023/03/23 10:12:45;;;;;;;2.10;1.97;;;;;;;;;;5027966;28;20264;-55
2023/03/23 10:15:20;;;;;;;2.73;1.90;;;;;;;;;;5019836;28;20650;-55
2023/03/23 10:18:00;;;;;;;5.27;2.00;;;;;;;;;;5011812;28;20251;-55
2023/03/23 10:20:28;;;;;;;2.07;1.90;;;;;;;;;;5014346;28;20732;-55
2023/03/23 10:23:03;;;;;;;3.60;2.30;;;;;;;;;;5021116;28;20277;-55
2023/03/23 10:25:32;;;;;;;3.17;1.80;;;;;;;;;;5009521;28;20624;-55
2023/03/23 10:28:01;;;;;;;2.80;1.93;;;;;;;;;;5011106;28;20187;-55
2023/03/23 10:30:30;;;;;;;5.33;2.03;;;;;;;;;;5031046;28;20288;-56
2023/03/23 10:33:18;;;;;;;2.13;1.93;;;;;;;;;;5028737;28;20178;-56
2023/03/23 10:35:47;;;;;;;2.97;1.80;;;;;;;;;;5010632;28;20673;-55
2023/03/23 10:38:16;;;;;;;2.20;2.00;;;;;;;;;;5013724;28;20183;-55
2023/03/23 10:40:56;;;;;;;6.37;2.30;;;;;;;;;;5015442;28;20201;-55
2023/03/23 10:43:22;;;;;;;5.13;2.57;;;;;;;;;;5026982;28;20588;-55
2023/03/23 10:45:52;;;;;;;2.90;1.97;;;;;;;;;;5025832;28;20186;-56
2023/03/23 10:48:22;;;;;;;2.53;2.03;;;;;;;;;;5008743;28;20232;-55
2023/03/23 10:50:51;;;;;;;3.27;2.30;;;;;;;;;;5009989;28;20186;-55
2023/03/23 10:53:43;;;;;;;3.60;2.63;;;;;;;;;;5021387;28;20650;-55
2023/03/23 10:56:22;;;;;;;3.37;2.60;;;;;;;;;;5010130;28;20182;-56
2023/03/23 10:58:48;;;;;;;4.57;2.30;;;;;;;;;;4997510;28;20195;-56
2023/03/23 11:01:15;;;;;;;2.63;2.23;;;;;;;;;;5019888;28;20186;-56
2023/03/23 11:03:50;;;;;;;6.33;2.30;;;;;;;;;;5023766;28;20269;-56
2023/03/23 11:06:28;;;;;;;3.60;2.40;;;;;;;;;;5018172;28;20175;-56
2023/03/23 11:09:14;;;;;;;3.10;2.40;;;;;;;;;;5006648;28;20197;-56
2023/03/23 11:11:46;;;;;;;5.37;2.33;;;;;;;;;;5011050;28;20206;-55
2023/03/23 11:14:18;;;;;;;2.33;2.07;;;;;;;;;;5025426;28;20174;-55
2023/03/23 11:16:52;;;;;;;5.90;2.10;;;;;;;;;;5013981;28;20229;-56
2023/03/23 11:19:37;;;;;;;2.23;1.93;;;;;;;;;;5006329;28;20647;-56
2023/03/23 11:22:16;;;;;;;3.07;2.17;;;;;;;;;;5010803;28;20684;-56
2023/03/23 11:24:43;;;;;;;2.10;1.80;;;;;;;;;;5029904;28;20249;-56
2023/03/23 11:27:10;;;;;;;3.70;2.23;;;;;;;;;;5009177;28;20186;-56
2023/03/23 11:29:42;;;;;;;2.97;2.07;;;;;;;;;;5008545;28;20260;-56
2023/03/23 11:32:11;;;;;;;5.43;2.10;;;;;;;;;;5019889;28;20185;-56
2023/03/23 11:34:41;;;;;;;3.03;2.17;;;;;;;;;;5015639;28;20668;-56
2023/03/23 11:37:09;;;;;;;2.13;1.93;;;;;;;;;;5007646;28;20232;-56
2023/03/23 11:39:46;;;;;;;2.87;1.60;;;;;;;;;;5012013;28;20674;-56
2023/03/23 11:42:13;;;;;;;2.63;1.90;;;;;;;;;;5009166;28;20204;-56
2023/03/23 11:44:46;;;;;;;2.13;1.60;;;;;;;;;;5028940;28;20204;-56
2023/03/23 11:47:25;;;;;;;2.17;1.77;;;;;;;;;;5012267;28;20192;-56
2023/03/23 11:50:00;;;;;;;1.77;1.60;;;;;;;;;;5011502;28;20203;-56
2023/03/23 11:52:45;;;;;;;2.57;1.70;;;;;;;;;;5014120;28;20189;-56
2023/03/23 11:55:21;;;;;;;2.93;2.10;;;;;;;;;;5009383;28;20603;-56
2023/03/23 11:57:47;;;;;;;2.60;1.87;;;;;;;;;;5011172;28;20177;-56
2023/03/23 12:00:18;;;;;;;2.00;1.50;;;;;;;;;;5009003;28;20278;-56
2023/03/23 12:02:59;;;;;;;2.57;1.77;;;;;;;;;;5011771;28;20596;-56
2023/03/23 12:05:28;;;;;;;2.00;1.70;;;;;;;;;;5020325;28;20185;-56
2023/03/23 12:08:13;;;;;;;2.50;1.60;;;;;;;;;;5020628;28;20189;-56
2023/03/23 12:10:39;;;;;;;2.70;1.50;;;;;;;;;;5010530;28;20198;-56
2023/03/23 12:13:22;;;;;;;3.17;1.77;;;;;;;;;;5012087;28;20189;-56
2023/03/23 12:15:56;;;;;;;1.40;1.30;;;;;;;;;;5029592;28;20166;-56
2023/03/23 12:18:22;;;;;;;3.53;1.73;;;;;;;;;;5007972;28;20668;-56
2023/03/23 12:21:05;;;;;;;2.00;1.90;;;;;;;;;;5007247;28;20222;-56
2023/03/23 12:24:04;;;;;;;1.93;1.70;;;;;;;;;;5014638;28;20539;-56
2023/03/23 12:26:37;;;;;;;2.20;1.70;;;;;;;;;;4989914;28;20286;-56
2023/03/23 12:29:09;;;;;;;2.20;1.93;;;;;;;;;;5012510;28;20238;-56
2023/03/23 12:31:41;;;;;;;3.27;1.70;;;;;;;;;;5018456;28;20199;-56
2023/03/23 12:34:20;;;;;;;2.67;1.70;;;;;;;;;;5015029;28;20189;-56
2023/03/23 12:36:46;;;;;;;2.77;1.97;;;;;;;;;;5024735;28;20197;-56
2023/03/23 12:39:21;;;;;;;3.40;1.90;;;;;;;;;;5016954;28;20616;-56
2023/03/23 12:41:47;;;;;;;2.50;1.83;;;;;;;;;;5018220;28;20192;-57
2023/03/23 12:44:14;;;;;;;2.40;2.20;;;;;;;;;;5013717;28;20221;-56
2023/03/23 12:46:53;;;;;;;2.00;1.90;;;;;;;;;;5016013;28;20197;-56
2023/03/23 12:49:19;;;;;;;3.73;2.10;;;;;;;;;;5021035;28;20205;-60
2023/03/23 12:52:15;;;;;;;2.67;1.80;;;;;;;;;;5027791;28;20182;-58
2023/03/23 12:54:54;;;;;;;3.37;1.90;;;;;;;;;;5005840;28;20198;-59
2023/03/23 12:57:30;;;;;;;3.40;2.27;;;;;;;;;;5013657;28;20534;-59
2023/03/23 12:59:56;;;;;;;2.47;2.27;;;;;;;;;;5016434;28;20267;-56
2023/03/23 13:02:26;;;;;;;3.03;2.70;;;;;;;;;;5018769;28;20186;-56
2023/03/23 13:04:57;;;;;;;2.87;1.80;;;;;;;;;;5009441;28;20186;-56
2023/03/23 13:07:26;;;;;;;2.30;1.90;;;;;;;;;;5017524;28;20185;-56
2023/03/23 13:09:56;;;;;;;4.43;2.23;;;;;;;;;;5016238;28;20597;-56
2023/03/23 13:12:23;;;;;;;3.80;2.37;;;;;;;;;;5011333;28;20566;-56
2023/03/23 13:15:06;;;;;;;1.90;1.80;;;;;;;;;;5009932;28;20721;-56
2023/03/23 13:17:47;;;;;;;2.40;1.97;;;;;;;;;;5016497;28;20677;-56
2023/03/23 13:20:25;;;;;;;3.67;2.57;;;;;;;;;;5017300;28;20226;-56
2023/03/23 13:23:06;;;;;;;3.43;1.87;;;;;;;;;;5029445;28;20728;-56
2023/03/23 13:25:36;;;;;;;2.13;1.93;;;;;;;;;;5024088;28;20197;-56
2023/03/23 13:28:02;;;;;;;3.83;1.77;;;;;;;;;;5012452;28;20662;-56
2023/03/23 13:30:29;;;;;;;3.20;2.50;;;;;;;;;;5013352;28;20544;-56
2023/03/23 13:33:02;;;;;;;2.40;2.00;;;;;;;;;;5017568;28;20583;-57
2023/03/23 13:35:34;;;;;;;2.40;2.17;;;;;;;;;;5010911;28;20228;-57
2023/03/23 13:38:00;;;;;;;2.23;2.00;;;;;;;;;;5010241;28;20210;-56
2023/03/23 13:40:27;;;;;;;3.20;2.50;;;;;;;;;;5010257;28;20635;-56
2023/03/23 13:42:58;;;;;;;2.33;2.13;;;;;;;;;;5015790;28;20192;-57
2023/03/23 13:45:38;;;;;;;2.93;1.70;;;;;;;;;;5012719;28;20190;-57
2023/03/23 13:48:16;;;;;;;2.13;1.93;;;;;;;;;;5012715;28;20297;-56
2023/03/23 13:51:01;;;;;;;2.37;2.17;;;;;;;;;;5015723;28;20206;-57
2023/03/23 13:53:32;;;;;;;2.10;2.00;;;;;;;;;;4999823;28;20174;-56
2023/03/23 13:56:16;;;;;;;6.77;2.40;;;;;;;;;;5015251;28;20187;-57
2023/03/23 13:58:46;;;;;;;2.70;2.03;;;;;;;;;;5017777;28;20185;-56
2023/03/23 14:01:17;;;;;;;3.27;2.20;;;;;;;;;;5012472;28;20182;-56
2023/03/23 14:03:49;;;;;;;3.30;2.40;;;;;;;;;;5020338;28;20673;-57
2023/03/23 14:06:16;;;;;;;3.10;2.10;;;;;;;;;;5030386;28;20186;-57
2023/03/23 14:08:44;;;;;;;5.40;2.23;;;;;;;;;;5026082;28;20206;-56
2023/03/23 14:11:12;;;;;;;3.60;2.10;;;;;;;;;;5010183;28;20288;-55
2023/03/23 14:13:46;;;;;;;2.60;2.10;;;;;;;;;;5011937;28;20190;-56
2023/03/23 14:16:22;;;;;;;3.50;2.27;;;;;;;;;;5020992;28;20469;-57
2023/03/23 14:18:56;;;;;;;2.60;2.40;;;;;;;;;;5004319;28;20217;-57
2023/03/23 14:21:42;;;;;;;3.70;2.20;;;;;;;;;;5015434;28;20191;-57
2023/03/23 14:24:13;;;;;;;2.70;2.20;;;;;;;;;;5024291;28;20186;-57
2023/03/23 14:26:39;;;;;;;4.43;2.90;;;;;;;;;;5029432;28;20173;-57
2023/03/23 14:29:07;;;;;;;2.23;2.03;;;;;;;;;;5012899;28;20697;-57
2023/03/23 14:31:33;;;;;;;2.60;2.40;;;;;;;;;;5013764;28;20576;-57
2023/03/23 14:34:02;;;;;;;3.53;2.90;;;;;;;;;;5018447;28;20228;-56
2023/03/23 14:36:29;;;;;;;4.43;2.40;;;;;;;;;;5019909;28;20633;-57
2023/03/23 14:39:01;;;;;;;3.77;2.60;;;;;;;;;;5017827;28;20255;-57
2023/03/23 14:41:31;;;;;;;3.67;2.70;;;;;;;;;;5011022;28;20186;-57
2023/03/23 14:43:59;;;;;;;4.00;2.90;;;;;;;;;;5010003;28;20194;-57
2023/03/23 14:46:25;;;;;;;2.90;2.40;;;;;;;;;;5013306;28;20227;-56
2023/03/23 14:48:52;;;;;;;2.60;2.40;;;;;;;;;;5011048;28;20202;-57
2023/03/23 14:51:20;;;;;;;3.90;2.53;;;;;;;;;;4991085;28;20171;-57
2023/03/23 14:53:47;;;;;;;3.77;2.87;;;;;;;;;;5010847;28;20221;-57
2023/03/23 14:56:16;;;;;;;4.83;3.13;;;;;;;;;;5019810;28;20648;-57